Other Surface Observations
Issued by NWS Great Falls, MT

Home | Current Version | Previous Version | Text Only | Print | Product List | Glossary On
Versions: 1 2 3 4 5 6 7 8 9 10 11 12 13 14 15 16 17 18 19 20 21 22 23 24 25 26 27 28 29 30 31 32 33 34 35 36 37 38 39 40 41 42 43 44 45 46 47 48 49 50
000
SXUS55 KTFX 180244
OSOTFX
AREA AWOS OBSERVATIONS
NATIONAL WEATHER SERVICE GREAT FALLS MT
0744 PM MST FRI NOV 17 2017

METAR KPWD 180245Z AUTO 35012KT 10SM M11/M14 A2979 RMK PLENTYWOOD
METAR KPO1 180245Z AUTO 35008KT 9SM M05/M08 A2981 RMK POPLAR
METAR K1S3 180245Z AUTO 25004KT 02/M04 A2984 RMK FORSYTH
METAR KS71 180245Z AUTO 26006KT 9SM M06/M08 A2989 RMK CHINOOK
METAR K3U3 180245Z AUTO 26005KT 10SM M02/M10 A3004 RMK ANACONDA
METAR K6S5 180245Z AUTO 16004KT 10SM 02/M07 A3012 RMK HAMILTON
METAR KS59 180245Z AUTO 00000KT 10SM 02/M01 A3005 RMK LIBBY
METAR K88M 180245Z AUTO 10SM 02/M06 A3003 RMK EUREKA



USA.gov is the U.S. government's official web portal to all federal, state and local government web resources and services.